Time;durP1;ratioP1;P1;durP2;ratioP2;P2;SDS_P1;SDS_P2;PMS_P1;PMS_P2;Temp;Humidity;BMP_temperature;BMP_pressure;BME280_temperature;BME280_humidity;BME280_pressure;Samples;Min_cycle;Max_cycle;Signal;HPM_P1;HPM_P2
2023/06/09 00:00:21;;;;;;;5.60;4.37;;;;;;;13.49;65.52;99753.86;1562379;90;20120;-70
2023/06/09 00:02:50;;;;;;;5.60;4.55;;;;;;;13.48;65.22;99746.94;1558370;90;21155;-72
2023/06/09 00:05:19;;;;;;;5.20;4.70;;;;;;;13.44;65.20;99748.04;1565681;90;21056;-68
2023/06/09 00:07:47;;;;;;;7.58;5.33;;;;;;;13.40;65.43;99744.77;1573704;90;21107;-66
2023/06/09 00:10:14;;;;;;;10.25;5.75;;;;;;;13.36;65.59;99747.64;1562571;91;21020;-71
2023/06/09 00:12:41;;;;;;;8.28;5.87;;;;;;;13.32;65.70;99743.52;1563948;91;21554;-71
2023/06/09 00:15:11;;;;;;;;;;;;;;;13.27;66.07;99746.40;1564712;90;21116;-71
2023/06/09 00:17:39;;;;;;;8.00;5.85;;;;;;;13.25;66.80;99744.77;1564673;90;20447;-72
2023/06/09 00:20:10;;;;;;;8.28;7.42;;;;;;;13.19;66.46;99744.22;1564231;90;21058;-71
2023/06/09 00:22:47;;;;;;;8.25;7.15;;;;;;;13.13;66.62;99740.61;1559192;90;21011;-70
2023/06/09 00:25:06;;;;;;;8.45;7.35;;;;;;;13.11;66.79;99743.80;1560052;90;22044;-71
2023/06/09 00:27:33;;;;;;;10.23;7.50;;;;;;;13.08;67.10;99736.13;1562453;90;21007;-70
2023/06/09 00:29:59;;;;;;;11.08;7.30;;;;;;;13.08;67.30;99736.13;1584092;89;21033;-71
2023/06/09 00:32:27;;;;;;;7.35;6.53;;;;;;;13.06;67.64;99741.91;1571464;90;21046;-70
2023/06/09 00:34:54;;;;;;;9.03;7.55;;;;;;;13.04;67.82;99731.97;1575659;89;21559;-71
2023/06/09 00:37:20;;;;;;;8.25;7.28;;;;;;;13.04;67.92;99733.75;1573455;90;21083;-69
2023/06/09 00:39:47;;;;;;;10.72;7.42;;;;;;;13.03;68.16;99735.53;1595507;88;21087;-67
2023/06/09 00:42:13;;;;;;;8.75;7.05;;;;;;;13.04;68.33;99731.97;1544178;91;21060;-71
2023/06/09 00:44:40;;;;;;;6.50;5.53;;;;;;;13.03;68.54;99731.60;1576152;89;21125;-69
2023/06/09 00:47:07;;;;;;;7.30;5.77;;;;;;;12.89;68.74;99696.17;1586571;88;21104;-68
2023/06/09 00:49:35;;;;;;;6.65;5.03;;;;;;;13.05;68.88;99724.50;1580035;89;21288;-70
2023/06/09 00:52:03;;;;;;;12.30;5.53;;;;;;;13.06;69.09;99727.97;1579382;89;20972;-69
2023/06/09 00:54:30;;;;;;;7.90;4.85;;;;;;;13.06;69.22;99720.94;1575921;89;21084;-70
2023/06/09 00:56:56;;;;;;;7.05;5.33;;;;;;;13.08;69.48;99723.02;1547692;91;21061;-69
2023/06/09 00:59:25;;;;;;;7.65;4.95;;;;;;;13.08;69.65;99720.39;1540514;91;20974;-64
2023/06/09 01:01:52;;;;;;;5.95;4.55;;;;;;;13.11;69.75;99721.52;1578943;89;20969;-69
2023/06/09 01:04:19;;;;;;;7.97;4.92;;;;;;;13.11;69.78;99718.91;1572510;89;21065;-69
2023/06/09 01:06:56;;;;;;;9.05;5.12;;;;;;;13.10;69.99;99705.40;1587358;89;21397;-69
2023/06/09 01:09:32;;;;;;;5.22;4.72;;;;;;;13.11;70.09;99705.80;1588081;89;22253;-69
2023/06/09 01:12:13;;;;;;;6.90;4.97;;;;;;;13.11;70.31;99709.73;1581133;89;21057;-67
2023/06/09 01:14:43;;;;;;;6.15;4.62;;;;;;;13.10;70.43;99702.78;1584152;88;21630;-69
2023/06/09 01:17:14;;;;;;;6.42;4.70;;;;;;;13.11;70.37;99712.34;1595943;88;21079;-67
2023/06/09 01:19:47;;;;;;;5.22;4.12;;;;;;;13.13;70.46;99709.63;1558213;91;21150;-69
2023/06/09 01:22:26;;;;;;;5.67;4.50;;;;;;;13.14;70.54;99706.09;1555329;91;21125;-69
2023/06/09 01:25:19;;;;;;;9.55;4.37;;;;;;;13.15;70.53;99705.98;1555198;91;21057;-69
2023/06/09 01:27:48;;;;;;;6.97;4.12;;;;;;;13.14;70.53;99696.44;1556606;91;21377;-67
2023/06/09 01:30:18;;;;;;;5.92;4.00;;;;;;;13.13;70.73;99699.97;1560911;91;21073;-64
2023/06/09 01:32:45;;;;;;;5.90;3.60;;;;;;;13.12;70.84;99706.16;1561324;91;21050;-64
2023/06/09 01:35:13;;;;;;;4.62;3.95;;;;;;;12.99;71.00;99692.94;1562887;91;21022;-68
2023/06/09 01:37:40;;;;;;;6.17;4.22;;;;;;;12.97;70.92;99675.61;1562821;91;21083;-65
2023/06/09 01:40:08;;;;;;;6.15;3.37;;;;;;;13.11;70.94;99704.95;1562774;91;20964;-68
2023/06/09 01:42:36;;;;;;;4.20;3.60;;;;;;;13.07;71.15;99709.98;1565783;90;21042;-69
2023/06/09 01:45:02;;;;;;;4.03;3.37;;;;;;;13.01;71.59;99710.34;1562307;90;21117;-68
2023/06/09 01:47:29;;;;;;;4.87;3.60;;;;;;;13.01;71.81;99711.66;1528969;92;21007;-68
2023/06/09 01:50:04;;;;;;;5.97;3.92;;;;;;;12.99;71.72;99708.66;1596059;89;21112;-68
2023/06/09 01:52:34;;;;;;;6.33;4.15;;;;;;;13.05;71.65;99712.71;1599914;89;21040;-68
2023/06/09 01:55:04;;;;;;;5.12;3.90;;;;;;;12.91;71.87;99687.73;1599521;89;21075;-69
2023/06/09 01:57:37;;;;;;;4.97;3.47;;;;;;;12.97;71.73;99707.06;1597134;89;21063;-68
2023/06/09 02:00:05;;;;;;;5.05;3.65;;;;;;;12.98;71.75;99707.43;1592953;89;21091;-68
2023/06/09 02:02:33;;;;;;;5.95;3.77;;;;;;;12.84;72.02;99694.27;1599542;89;21120;-69
2023/06/09 02:05:03;;;;;;;6.22;4.08;;;;;;;12.84;72.02;99694.27;1599062;89;21025;-68
2023/06/09 02:07:31;;;;;;;4.83;3.80;;;;;;;12.95;72.23;99718.09;1595998;89;21103;-67
2023/06/09 02:09:59;;;;;;;4.53;3.92;;;;;;;12.93;72.31;99716.85;1599047;88;21051;-69
2023/06/09 02:12:32;;;;;;;4.72;3.70;;;;;;;12.88;72.48;99711.49;1596267;89;21202;-67
2023/06/09 02:15:00;;;;;;;5.35;3.60;;;;;;;12.84;72.68;99705.59;1602334;89;21032;-67
2023/06/09 02:17:32;;;;;;;6.03;4.03;;;;;;;12.86;72.64;99710.29;1580124;89;20984;-69
2023/06/09 02:19:59;;;;;;;4.12;3.55;;;;;;;12.81;72.62;99708.86;1575886;89;21031;-69
2023/06/09 02:22:26;;;;;;;4.80;3.77;;;;;;;12.78;72.63;99703.80;1575661;89;21093;-66
2023/06/09 02:24:53;;;;;;;4.83;4.03;;;;;;;12.70;72.76;99705.53;1573329;89;20964;-69
2023/06/09 02:27:19;;;;;;;4.37;3.87;;;;;;;12.64;72.92;99708.03;1586823;89;21058;-69
2023/06/09 02:29:45;;;;;;;3.33;3.02;;;;;;;12.60;73.12;99707.80;1578225;89;21002;-69
2023/06/09 02:32:11;;;;;;;3.85;3.45;;;;;;;12.43;73.19;99698.73;1570270;89;21070;-69
2023/06/09 02:34:38;;;;;;;5.50;3.72;;;;;;;12.43;73.19;99698.73;1589633;89;21021;-69
2023/06/09 02:37:07;;;;;;;6.97;3.65;;;;;;;12.52;73.49;99712.66;1573472;89;21636;-63
2023/06/09 02:39:36;;;;;;;4.28;2.90;;;;;;;12.52;73.47;99713.97;1580862;89;21047;-69
2023/06/09 02:42:03;;;;;;;4.30;3.12;;;;;;;12.44;73.57;99722.23;1559953;90;21032;-68
2023/06/09 02:44:31;;;;;;;3.40;3.10;;;;;;;12.44;73.57;99722.23;1558896;90;21044;-69
2023/06/09 02:46:59;;;;;;;6.45;3.80;;;;;;;12.39;73.79;99728.66;1540029;92;21587;-69
2023/06/09 02:49:26;;;;;;;6.40;3.77;;;;;;;12.40;74.11;99728.55;1522704;91;21536;-69
2023/06/09 02:51:53;;;;;;;4.47;3.85;;;;;;;12.43;74.20;99730.16;1511884;93;21488;-68
2023/06/09 02:54:20;;;;;;;4.50;3.95;;;;;;;12.46;74.26;99722.13;1551163;90;21421;-68
2023/06/09 02:56:46;;;;;;;4.03;3.47;;;;;;;12.44;74.51;99714.38;1552530;90;20955;-65
2023/06/09 02:59:12;;;;;;;4.40;3.75;;;;;;;12.58;74.66;99735.88;1555742;90;21057;-68
2023/06/09 03:01:39;;;;;;;4.70;4.22;;;;;;;12.70;75.07;99741.73;1552871;90;20978;-68
2023/06/09 03:04:06;;;;;;;5.47;3.77;;;;;;;12.70;75.07;99741.73;1555782;90;21082;-64
2023/06/09 03:06:35;;;;;;;5.53;3.80;;;;;;;12.78;74.94;99736.55;1548647;90;21010;-67
2023/06/09 03:09:03;;;;;;;4.55;4.10;;;;;;;12.88;75.09;99735.08;1554729;90;21481;-67
2023/06/09 03:11:30;;;;;;;5.65;4.17;;;;;;;12.95;75.20;99733.34;1551688;90;21053;-68
2023/06/09 03:14:00;;;;;;;4.45;3.90;;;;;;;13.03;75.17;99738.16;1547613;90;21097;-67
2023/06/09 03:16:27;;;;;;;4.17;3.77;;;;;;;13.09;75.14;99736.48;1552039;90;21613;-68
2023/06/09 03:18:54;;;;;;;4.08;3.67;;;;;;;13.14;75.25;99738.38;1553904;90;21615;-68
2023/06/09 03:21:24;;;;;;;5.30;3.72;;;;;;;13.21;75.42;99738.86;1551964;91;20946;-68
2023/06/09 03:23:49;;;;;;;6.08;3.80;;;;;;;13.29;75.55;99738.46;1548724;91;21101;-66
2023/06/09 03:26:15;;;;;;;4.25;3.67;;;;;;;13.36;75.62;99739.77;1553073;91;21007;-64
2023/06/09 03:28:41;;;;;;;4.87;3.87;;;;;;;13.42;75.79;99736.81;1554956;90;21000;-67
2023/06/09 03:31:08;;;;;;;7.03;4.00;;;;;;;13.52;75.82;99737.11;1538890;92;20997;-67
2023/06/09 03:33:34;;;;;;;6.15;4.10;;;;;;;13.58;75.92;99734.98;1562313;90;21019;-69
2023/06/09 03:36:01;;;;;;;5.80;4.35;;;;;;;13.64;76.05;99743.80;1565605;90;21499;-68
2023/06/09 03:38:27;;;;;;;4.55;4.15;;;;;;;13.71;75.97;99747.36;1555413;90;21009;-69
2023/06/09 03:40:54;;;;;;;7.53;3.92;;;;;;;13.76;76.05;99745.30;1558360;91;21583;-69
2023/06/09 03:43:20;;;;;;;5.58;4.55;;;;;;;13.82;76.24;99747.55;1558582;90;21019;-68
2023/06/09 03:45:47;;;;;;;7.12;4.67;;;;;;;13.91;76.28;99752.23;1557818;90;21071;-69
2023/06/09 03:48:13;;;;;;;6.42;3.85;;;;;;;13.98;76.32;99750.11;1555434;90;21051;-68
2023/06/09 03:50:40;;;;;;;11.77;5.63;;;;;;;14.06;76.32;99756.58;1561120;90;21077;-68
2023/06/09 03:53:07;;;;;;;8.43;4.15;;;;;;;14.16;76.44;99758.63;1563331;90;21748;-68
2023/06/09 03:55:34;;;;;;;12.23;4.67;;;;;;;14.25;76.49;99763.30;1563724;90;21036;-67
2023/06/09 03:58:01;;;;;;;5.10;4.17;;;;;;;14.30;76.64;99758.14;1561936;90;20996;-68
2023/06/09 04:00:27;;;;;;;5.75;3.92;;;;;;;14.39;76.80;99758.03;1563007;90;21125;-68
2023/06/09 04:02:53;;;;;;;5.30;4.17;;;;;;;14.50;76.90;99758.20;1564523;90;21041;-68
2023/06/09 04:05:22;;;;;;;7.63;3.97;;;;;;;14.68;76.92;99760.67;1554943;91;21577;-63
2023/06/09 04:07:48;;;;;;;8.73;4.28;;;;;;;14.68;76.92;99760.67;1557573;91;21036;-68
2023/06/09 04:10:15;;;;;;;6.70;4.37;;;;;;;14.77;76.97;99760.08;1534465;93;21507;-68
2023/06/09 04:12:41;;;;;;;7.17;4.37;;;;;;;14.86;76.98;99762.10;1564578;90;21041;-68
2023/06/09 04:15:09;;;;;;;10.25;4.08;;;;;;;14.97;77.22;99759.63;1558408;91;21084;-69
2023/06/09 04:17:39;;;;;;;6.70;4.20;;;;;;;15.10;77.23;99764.10;1563596;90;21091;-65
2023/06/09 04:20:09;;;;;;;6.33;4.30;;;;;;;15.21;77.09;99768.19;1559218;90;21575;-67
2023/06/09 04:22:43;;;;;;;4.78;4.10;;;;;;;15.29;77.00;99769.84;1548707;91;21032;-68
2023/06/09 04:25:07;;;;;;;4.97;4.40;;;;;;;15.38;77.11;99763.97;1534185;90;21027;-68
2023/06/09 04:27:34;;;;;;;5.55;4.05;;;;;;;15.50;77.09;99757.03;1535282;90;21067;-67
2023/06/09 04:30:04;;;;;;;6.10;4.15;;;;;;;15.58;77.15;99761.79;1566942;90;21519;-67
2023/06/09 04:32:32;;;;;;;6.65;4.67;;;;;;;15.70;77.21;99758.34;1554799;89;21008;-63
2023/06/09 04:34:58;;;;;;;7.83;4.37;;;;;;;15.72;76.80;99759.09;1557237;90;21038;-68
2023/06/09 04:37:25;;;;;;;5.85;4.60;;;;;;;15.64;76.64;99756.11;1550770;91;21056;-67
2023/06/09 04:39:51;;;;;;;6.57;4.53;;;;;;;15.65;77.14;99761.73;1549128;91;21119;-67
2023/06/09 04:42:22;;;;;;;6.80;4.20;;;;;;;15.77;77.48;99753.53;1562343;90;21062;-67
2023/06/09 04:44:51;;;;;;;8.43;4.97;;;;;;;15.88;77.43;99754.95;1555216;91;21051;-67
2023/06/09 04:47:18;;;;;;;7.42;4.53;;;;;;;16.02;77.40;99751.34;1530085;92;21603;-68
2023/06/09 04:49:49;;;;;;;7.28;4.40;;;;;;;16.17;77.58;99748.97;1555264;90;21556;-67
2023/06/09 04:52:20;;;;;;;6.40;3.90;;;;;;;16.32;77.41;99747.88;1556378;91;21531;-67
2023/06/09 04:54:44;;;;;;;7.15;4.33;;;;;;;16.48;77.41;99749.44;1561366;90;21089;-67
2023/06/09 04:57:11;;;;;;;10.90;4.60;;;;;;;16.64;77.35;99746.08;1538620;92;21065;-67
2023/06/09 04:59:40;;;;;;;5.53;3.85;;;;;;;16.79;77.41;99752.06;1565620;90;20984;-68
2023/06/09 05:02:10;;;;;;;7.03;3.80;;;;;;;16.95;77.20;99747.84;1557714;91;21057;-64
2023/06/09 05:04:41;;;;;;;10.70;4.55;;;;;;;17.12;77.41;99747.43;1559064;90;21049;-66
2023/06/09 05:07:09;;;;;;;7.33;3.70;;;;;;;17.21;77.17;99748.05;1550530;91;21538;-64
2023/06/09 05:09:36;;;;;;;6.22;3.08;;;;;;;17.32;76.94;99751.70;1562338;90;21018;-66
2023/06/09 05:12:03;;;;;;;7.85;3.60;;;;;;;17.23;76.50;99750.11;1559098;90;21062;-66
2023/06/09 05:14:29;;;;;;;5.33;2.75;;;;;;;17.27;76.53;99747.24;1555142;90;21655;-68
2023/06/09 05:16:55;;;;;;;7.40;2.80;;;;;;;17.22;76.58;99751.08;1542228;91;21113;-68
2023/06/09 05:19:22;;;;;;;6.80;3.83;;;;;;;17.20;76.34;99750.83;1570796;90;21425;-68
2023/06/09 05:21:49;;;;;;;5.97;3.05;;;;;;;17.30;77.15;99749.65;1522599;93;21713;-69
2023/06/09 05:24:15;;;;;;;4.83;2.83;;;;;;;17.48;76.69;99748.77;1505893;93;21048;-67
2023/06/09 05:26:42;;;;;;;4.53;2.62;;;;;;;17.58;77.22;99745.77;1557786;89;21031;-67
2023/06/09 05:29:08;;;;;;;5.55;3.08;;;;;;;17.73;76.65;99751.67;1561220;90;20976;-68
2023/06/09 05:31:35;;;;;;;9.45;3.20;;;;;;;17.84;76.58;99753.05;1553180;91;21481;-67
2023/06/09 05:34:01;;;;;;;7.20;2.90;;;;;;;17.96;76.32;99750.80;1577243;89;21052;-69
2023/06/09 05:36:29;;;;;;;6.15;3.27;;;;;;;18.02;76.17;99754.27;1563220;91;20979;-68
2023/06/09 05:38:58;;;;;;;8.98;3.33;;;;;;;18.19;76.50;99758.73;1582381;89;20991;-68
2023/06/09 05:41:25;;;;;;;6.85;2.90;;;;;;;18.35;76.16;99764.50;1578507;89;21143;-69
2023/06/09 05:43:52;;;;;;;5.60;2.77;;;;;;;18.46;75.97;99763.16;1592501;89;21068;-69
2023/06/09 05:46:18;;;;;;;6.20;2.87;;;;;;;18.55;75.71;99755.81;1559589;89;21024;-67
2023/06/09 05:48:45;;;;;;;4.73;2.80;;;;;;;18.55;75.31;99763.75;1586998;89;21693;-68
2023/06/09 05:51:12;;;;;;;7.97;2.60;;;;;;;18.46;75.32;99764.48;1558850;91;21440;-67
2023/06/09 05:53:39;;;;;;;6.20;3.10;;;;;;;18.47;75.42;99766.16;1580542;89;20958;-66
2023/06/09 05:56:05;;;;;;;6.53;3.42;;;;;;;18.61;75.22;99774.80;1577646;89;21111;-74
2023/06/09 05:58:33;;;;;;;5.23;3.23;;;;;;;18.58;75.18;99779.84;1545304;91;21082;-73
2023/06/09 06:01:03;;;;;;;7.25;3.17;;;;;;;18.63;74.95;99780.33;1577661;88;21016;-74
2023/06/09 06:03:33;;;;;;;9.85;3.45;;;;;;;18.71;74.98;99782.37;1576946;89;21585;-70
2023/06/09 06:05:59;;;;;;;5.45;2.75;;;;;;;18.77;74.96;99791.16;1540977;91;21014;-72
2023/06/09 06:08:25;;;;;;;8.98;3.40;;;;;;;18.92;74.86;99789.91;1555199;91;21102;-72
2023/06/09 06:10:52;;;;;;;7.50;3.02;;;;;;;19.01;74.41;99790.48;1577177;89;21001;-70
2023/06/09 06:13:18;;;;;;;8.00;3.60;;;;;;;19.14;74.61;99790.81;1582265;89;21600;-71
2023/06/09 06:15:45;;;;;;;6.53;2.80;;;;;;;19.36;74.58;99796.03;1549860;91;21339;-74
2023/06/09 06:18:14;;;;;;;7.15;3.58;;;;;;;19.50;73.87;99808.13;1578964;89;21076;-71
2023/06/09 06:20:41;;;;;;;9.40;3.62;;;;;;;19.32;73.38;99805.17;1583978;89;21087;-73
2023/06/09 06:23:08;;;;;;;6.47;3.12;;;;;;;19.36;73.47;99806.62;1573789;89;20964;-73
2023/06/09 06:25:41;;;;;;;;;;;;;;;19.46;73.71;99800.06;1583228;89;21457;-70
2023/06/09 06:28:06;;;;;;;5.42;3.35;;;;;;;19.71;73.44;99806.83;1588182;89;20513;-69
2023/06/09 06:30:33;;;;;;;;;;;;;;;19.78;72.87;99803.20;1555202;90;21023;-72
2023/06/09 06:32:59;;;;;;;5.37;2.50;;;;;;;19.92;72.99;99803.36;1557920;90;20486;-72
2023/06/09 06:35:29;;;;;;;6.25;3.20;;;;;;;20.03;72.71;99794.84;1582640;89;22121;-72
2023/06/09 06:37:57;;;;;;;11.08;3.22;;;;;;;20.14;72.56;99801.88;1563242;90;21142;-74
2023/06/09 06:40:26;;;;;;;8.23;2.90;;;;;;;20.15;72.22;99798.25;1587396;88;21131;-71
2023/06/09 06:42:55;;;;;;;4.60;3.10;;;;;;;20.12;72.32;99795.86;1555886;90;20978;-69
2023/06/09 06:45:22;;;;;;;8.00;2.75;;;;;;;20.33;71.99;99796.67;1562154;90;21099;-70
2023/06/09 06:47:50;;;;;;;4.12;2.67;;;;;;;20.47;72.40;99798.13;1536949;92;21077;-72
2023/06/09 06:50:16;;;;;;;9.17;3.47;;;;;;;20.75;72.01;99795.23;1581245;89;21603;-69
2023/06/09 06:52:42;;;;;;;10.80;2.93;;;;;;;21.03;71.06;99794.57;1576753;89;21130;-67
2023/06/09 06:55:09;;;;;;;7.75;3.12;;;;;;;21.33;71.24;99797.61;1579234;89;21608;-71
2023/06/09 06:57:36;;;;;;;6.50;2.83;;;;;;;21.77;71.62;99800.69;1553720;91;21081;-66
2023/06/09 07:00:14;;;;;;;6.67;2.67;;;;;;;22.47;71.69;99788.73;1585767;89;21113;-70
2023/06/09 07:02:48;;;;;;;5.87;3.17;;;;;;;23.16;71.40;99797.17;1553271;90;21034;-68
2023/06/09 07:05:17;;;;;;;6.08;3.12;;;;;;;23.79;70.38;99806.91;1581951;89;21044;-68
2023/06/09 07:07:51;;;;;;;9.55;2.75;;;;;;;24.08;69.66;99811.93;1591597;89;21132;-70
2023/06/09 07:10:22;;;;;;;10.23;3.22;;;;;;;24.66;69.26;99811.26;1584540;89;21305;-72
2023/06/09 07:12:52;;;;;;;6.08;2.90;;;;;;;25.21;68.33;99816.13;1553531;90;21049;-73
2023/06/09 07:15:22;;;;;;;9.95;3.20;;;;;;;25.79;67.74;99811.61;1586239;89;21645;-71
2023/06/09 07:17:55;;;;;;;5.40;3.50;;;;;;;25.89;65.81;99808.80;1593831;88;21119;-71
2023/06/09 07:20:21;;;;;;;8.43;3.58;;;;;;;25.99;66.05;99809.47;1550205;91;21127;-69
2023/06/09 07:22:51;;;;;;;8.05;3.40;;;;;;;26.69;65.73;99811.45;1538085;91;21008;-65
2023/06/09 07:25:18;;;;;;;10.82;3.22;;;;;;;27.20;64.52;99805.66;1563524;90;21551;-64
2023/06/09 07:27:45;;;;;;;14.55;3.85;;;;;;;28.00;64.47;99805.67;1580765;88;21080;-69
2023/06/09 07:30:12;;;;;;;7.55;2.77;;;;;;;28.58;62.74;99804.05;1551168;89;21016;-66
2023/06/09 07:32:42;;;;;;;7.47;3.00;;;;;;;29.11;62.75;99800.66;1589200;88;20969;-69
2023/06/09 07:35:12;;;;;;;6.78;3.52;;;;;;;29.81;61.96;99800.91;1583759;88;21121;-69
2023/06/09 07:37:42;;;;;;;7.97;3.37;;;;;;;29.66;60.11;99808.55;1564773;90;21182;-68
2023/06/09 07:40:09;;;;;;;6.58;3.00;;;;;;;30.31;60.62;99812.45;1583469;90;21088;-70
2023/06/09 07:42:36;;;;;;;8.55;2.72;;;;;;;30.89;58.89;99802.16;1549579;92;22265;-70
2023/06/09 07:45:02;;;;;;;4.40;2.75;;;;;;;30.57;57.60;99800.13;1579699;90;21116;-69
2023/06/09 07:47:29;;;;;;;8.78;2.90;;;;;;;31.05;57.35;99813.59;1551078;92;21511;-69
2023/06/09 07:49:55;;;;;;;7.75;3.42;;;;;;;31.92;56.00;99803.75;1563363;90;21083;-69
2023/06/09 07:52:21;;;;;;;10.45;3.17;;;;;;;32.50;54.27;99809.27;1576534;90;21074;-69
2023/06/09 07:54:49;;;;;;;8.23;2.92;;;;;;;32.19;52.10;99812.13;1571661;90;21048;-77
2023/06/09 07:57:16;;;;;;;7.83;2.90;;;;;;;31.07;51.15;99806.97;1563305;90;21064;-68
2023/06/09 07:59:42;;;;;;;7.35;2.92;;;;;;;31.21;50.83;99815.92;1573230;90;21036;-69
2023/06/09 08:02:08;;;;;;;5.53;2.75;;;;;;;31.26;49.95;99816.14;1560927;90;21617;-69
2023/06/09 08:04:35;;;;;;;9.70;2.92;;;;;;;30.94;48.29;99819.88;1561359;90;21034;-67
2023/06/09 08:07:02;;;;;;;5.58;3.00;;;;;;;30.70;47.82;99809.63;1555641;90;21075;-68
2023/06/09 08:09:28;;;;;;;;;;;;;;;30.99;47.29;99813.38;1567247;90;21636;-74
2023/06/09 08:11:56;;;;;;;7.47;3.17;;;;;;;31.42;45.81;99813.09;1566672;90;20167;-71
2023/06/09 08:14:22;;;;;;;6.83;2.62;;;;;;;31.93;46.02;99820.25;1567067;90;20996;-72
2023/06/09 08:16:52;;;;;;;7.58;2.80;;;;;;;33.24;46.52;99819.20;1538778;91;21123;-72
2023/06/09 08:19:20;;;;;;;6.00;3.25;;;;;;;34.67;45.65;99817.81;1546038;90;21559;-70
2023/06/09 08:21:46;;;;;;;8.00;3.20;;;;;;;34.83;43.58;99824.50;1552283;90;21024;-70
2023/06/09 08:24:13;;;;;;;10.98;3.30;;;;;;;34.03;43.30;99815.89;1551151;91;21100;-72
2023/06/09 08:26:41;;;;;;;7.03;2.72;;;;;;;33.95;42.78;99817.53;1531592;92;21092;-72
2023/06/09 08:29:10;;;;;;;7.78;3.22;;;;;;;34.71;42.27;99818.21;1584358;89;21001;-72
2023/06/09 08:31:39;;;;;;;22.62;5.17;;;;;;;35.44;41.11;99821.80;1572957;89;21490;-73
2023/06/09 08:34:08;;;;;;;7.60;3.33;;;;;;;36.34;40.77;99809.81;1544195;90;21042;-71
2023/06/09 08:36:35;;;;;;;13.30;3.30;;;;;;;36.85;39.45;99821.75;1583847;89;21001;-69
2023/06/09 08:39:06;;;;;;;11.80;4.03;;;;;;;36.63;39.42;99826.48;1580770;89;21570;-70
2023/06/09 08:41:41;;;;;;;6.42;2.85;;;;;;;37.55;38.68;99821.42;1580608;89;21100;-72
2023/06/09 08:44:12;;;;;;;30.57;8.70;;;;;;;37.09;36.85;99827.42;1554345;91;21007;-74
2023/06/09 08:46:42;;;;;;;7.33;3.25;;;;;;;36.93;36.84;99824.08;1587488;89;21049;-71
2023/06/09 08:49:09;;;;;;;6.05;3.02;;;;;;;37.06;35.59;99811.58;1575590;89;21111;-69
2023/06/09 08:51:38;;;;;;;88.80;8.10;;;;;;;35.85;35.18;99819.05;1575334;89;20955;-69
2023/06/09 08:54:13;;;;;;;7.80;2.75;;;;;;;35.62;34.72;99818.47;1568045;90;21105;-71
2023/06/09 08:56:40;;;;;;;5.83;3.02;;;;;;;36.21;34.85;99833.45;1581143;89;21044;-71
2023/06/09 08:59:09;;;;;;;6.35;3.08;;;;;;;37.21;33.47;99825.17;1580598;89;21211;-72
2023/06/09 09:01:39;;;;;;;7.12;3.52;;;;;;;36.33;32.63;99840.77;1578815;88;21602;-76
2023/06/09 09:04:10;;;;;;;4.75;2.62;;;;;;;35.59;32.73;99837.13;1554038;89;21549;-73
2023/06/09 09:06:41;;;;;;;8.08;3.45;;;;;;;35.93;32.03;99842.83;1574230;89;20996;-69
2023/06/09 09:09:11;;;;;;;7.83;3.12;;;;;;;34.61;31.73;99842.31;1577052;89;20989;-73
2023/06/09 09:11:39;;;;;;;5.97;3.30;;;;;;;35.42;32.40;99844.56;1577710;89;21022;-73
2023/06/09 09:14:11;;;;;;;6.72;3.30;;;;;;;36.61;31.50;99840.87;1574514;89;21044;-71
2023/06/09 09:16:40;;;;;;;13.35;3.67;;;;;;;36.66;31.08;99853.73;1585284;89;21096;-73
2023/06/09 09:19:10;;;;;;;8.73;3.22;;;;;;;35.53;29.96;99855.69;1555361;89;21095;-78
2023/06/09 09:21:38;;;;;;;6.25;3.05;;;;;;;34.02;30.19;99845.37;1577557;89;21107;-73
2023/06/09 09:24:10;;;;;;;8.90;3.25;;;;;;;33.33;30.66;99849.01;1546858;91;21048;-74
2023/06/09 09:26:40;;;;;;;7.10;3.35;;;;;;;34.65;31.03;99843.53;1592533;89;21013;-72
2023/06/09 09:29:08;;;;;;;5.03;2.90;;;;;;;35.56;30.41;99850.64;1563767;88;21404;-77
2023/06/09 09:31:39;;;;;;;7.03;3.08;;;;;;;36.88;30.35;99845.75;1579498;89;21111;-74
2023/06/09 09:34:12;;;;;;;7.10;3.05;;;;;;;36.76;29.90;99843.08;1576662;89;21016;-72
2023/06/09 09:36:43;;;;;;;7.75;3.20;;;;;;;36.25;29.41;99845.52;1588402;89;21035;-75
2023/06/09 09:39:09;;;;;;;9.65;3.27;;;;;;;36.63;29.91;99841.44;1585833;89;21630;-76
2023/06/09 09:41:35;;;;;;;7.30;3.35;;;;;;;37.24;29.60;99839.65;1575506;89;22139;-70
2023/06/09 09:44:02;;;;;;;7.10;3.15;;;;;;;37.97;29.30;99840.09;1577121;89;21062;-77
2023/06/09 09:46:37;;;;;;;5.35;2.75;;;;;;;37.72;28.57;99841.03;1586418;89;21044;-77
2023/06/09 09:49:07;;;;;;;6.47;3.25;;;;;;;37.68;28.57;99846.70;1573427;89;21073;-75
2023/06/09 09:51:39;;;;;;;9.00;3.05;;;;;;;36.35;27.66;99853.59;1579714;89;21001;-72
2023/06/09 09:54:03;;;;;;;8.28;3.50;;;;;;;35.05;27.83;99853.86;1556422;90;21081;-78
2023/06/09 09:56:31;;;;;;;6.87;3.35;;;;;;;34.74;28.08;99850.30;1577924;90;21044;-74
2023/06/09 09:59:00;;;;;;;8.30;3.17;;;;;;;35.34;27.93;99851.68;1512105;92;21641;-69
2023/06/09 10:01:28;;;;;;;9.93;3.70;;;;;;;34.76;27.03;99852.26;1552178;91;21030;-69
2023/06/09 10:03:59;;;;;;;8.93;3.37;;;;;;;33.78;28.01;99839.47;1580791;89;21037;-66
2023/06/09 10:06:32;;;;;;;7.35;3.80;;;;;;;34.51;28.28;99843.65;1582680;89;21024;-72
2023/06/09 10:09:00;;;;;;;6.62;2.95;;;;;;;35.97;28.72;99848.93;1574682;89;21020;-71
2023/06/09 10:11:30;;;;;;;8.38;2.92;;;;;;;36.72;28.17;99848.18;1549901;90;21018;-72
2023/06/09 10:13:59;;;;;;;9.85;3.65;;;;;;;36.85;27.57;99842.97;1549533;91;20991;-74
2023/06/09 10:16:27;;;;;;;10.68;3.60;;;;;;;36.44;27.37;99842.64;1582176;89;21137;-73
2023/06/09 10:18:55;;;;;;;7.72;3.70;;;;;;;34.31;26.90;99851.15;1550671;91;21096;-74
2023/06/09 10:21:22;;;;;;;11.20;3.50;;;;;;;32.98;27.83;99862.92;1545265;91;21141;-71
2023/06/09 10:23:49;;;;;;;8.28;3.77;;;;;;;32.60;27.97;99861.01;1548629;92;20982;-77
2023/06/09 10:26:16;;;;;;;5.28;2.92;;;;;;;33.04;28.56;99855.32;1542082;92;21061;-71
2023/06/09 10:28:42;;;;;;;7.70;3.10;;;;;;;33.78;28.47;99847.59;1546122;91;21060;-75
2023/06/09 10:31:15;;;;;;;7.37;3.30;;;;;;;34.51;28.40;99850.96;1545406;92;22094;-72
2023/06/09 10:33:47;;;;;;;4.28;2.65;;;;;;;34.83;28.41;99851.63;1546181;91;21665;-73
2023/06/09 10:36:16;;;;;;;5.50;3.33;;;;;;;34.94;27.90;99844.61;1543480;92;21019;-78
2023/06/09 10:38:53;;;;;;;11.25;3.33;;;;;;;35.22;28.61;99840.50;1575269;91;21525;-79
2023/06/09 10:41:29;;;;;;;5.80;2.92;;;;;;;35.99;28.25;99843.23;1572103;90;21115;-79
2023/06/09 10:44:19;;;;;;;5.97;3.22;;;;;;;36.95;28.26;99836.38;1568517;90;21068;-76
2023/06/09 10:46:47;;;;;;;5.58;3.10;;;;;;;35.54;27.15;99822.03;1570446;89;21106;-73
2023/06/09 10:49:36;;;;;;;8.65;3.00;;;;;;;35.54;27.15;99822.03;1573455;90;21655;-73
2023/06/09 10:51:57;;;;;;;4.67;3.05;;;;;;;34.95;26.97;99844.39;1571212;90;21127;-74
2023/06/09 10:54:26;;;;;;;4.72;2.80;;;;;;;35.29;27.74;99844.78;1573567;90;21159;-66
2023/06/09 10:57:00;;;;;;;9.55;3.25;;;;;;;35.81;27.31;99836.86;1573248;90;21543;-77
2023/06/09 10:59:32;;;;;;;12.23;3.20;;;;;;;36.58;27.13;99835.07;1573476;91;21008;-81
2023/06/09 11:02:08;;;;;;;8.00;3.05;;;;;;;36.11;26.42;99838.68;1574833;89;21038;-68
2023/06/09 11:04:49;;;;;;;9.38;3.70;;;;;;;35.92;26.93;99837.94;1572229;89;21018;-74
2023/06/09 11:07:19;;;;;;;6.72;3.40;;;;;;;36.42;26.94;99842.07;1570774;89;22162;-70
2023/06/09 11:09:53;;;;;;;7.12;3.20;;;;;;;36.22;26.60;99835.66;1569675;90;21056;-72
2023/06/09 11:12:46;;;;;;;7.60;3.08;;;;;;;35.88;26.21;99835.91;1572915;89;21479;-71
2023/06/09 11:15:16;;;;;;;9.18;2.95;;;;;;;35.69;26.62;99830.61;1574372;91;21135;-71
2023/06/09 11:17:48;;;;;;;42.95;5.87;;;;;;;35.38;26.30;99835.24;1569167;90;21482;-66
2023/06/09 11:20:22;;;;;;;5.83;3.00;;;;;;;34.89;26.47;99830.90;1584976;89;21036;-66
2023/06/09 11:22:50;;;;;;;10.65;3.37;;;;;;;34.84;26.61;99830.22;1578776;89;21111;-69
2023/06/09 11:25:24;;;;;;;9.30;3.25;;;;;;;34.56;26.65;99829.96;1587434;89;21592;-69
2023/06/09 11:28:00;;;;;;;6.37;3.08;;;;;;;34.27;26.41;99833.16;1575436;89;21488;-70
2023/06/09 11:30:29;;;;;;;8.78;3.37;;;;;;;33.92;26.82;99830.17;1579155;89;21096;-66
2023/06/09 11:32:58;;;;;;;6.97;2.98;;;;;;;34.29;26.95;99831.60;1577578;89;20996;-76
2023/06/09 11:35:44;;;;;;;6.62;2.85;;;;;;;33.70;26.39;99835.67;1579430;89;21128;-75
2023/06/09 11:38:13;;;;;;;9.40;3.47;;;;;;;32.32;27.01;99837.77;1571830;89;21535;-77
2023/06/09 11:40:52;;;;;;;6.67;3.20;;;;;;;31.89;27.32;99834.67;1544332;91;21110;-76